sensor_id;sensor_type;location;lat;lon;timestamp;P1;durP1;ratioP1;P2;durP2;ratioP2
38465;SDS011;24244;51.950;5.902;2023-07-24T00:01:16;1.17;;;0.40;;
38465;SDS011;24244;51.950;5.902;2023-07-24T00:03:44;1.67;;;0.73;;
38465;SDS011;24244;51.950;5.902;2023-07-24T00:06:13;1.23;;;0.40;;
38465;SDS011;24244;51.950;5.902;2023-07-24T00:08:40;1.55;;;0.55;;
38465;SDS011;24244;51.950;5.902;2023-07-24T00:11:07;1.77;;;0.80;;
38465;SDS011;24244;51.950;5.902;2023-07-24T00:13:33;1.85;;;0.70;;
38465;SDS011;24244;51.950;5.902;2023-07-24T00:16:00;1.08;;;0.60;;
38465;SDS011;24244;51.950;5.902;2023-07-24T00:18:32;1.40;;;0.65;;
38465;SDS011;24244;51.950;5.902;2023-07-24T00:20:58;1.67;;;0.50;;
38465;SDS011;24244;51.950;5.902;2023-07-24T00:23:27;1.25;;;0.70;;
38465;SDS011;24244;51.950;5.902;2023-07-24T00:25:54;2.22;;;0.82;;
38465;SDS011;24244;51.950;5.902;2023-07-24T00:28:20;1.60;;;0.68;;
38465;SDS011;24244;51.950;5.902;2023-07-24T00:30:47;1.55;;;0.50;;
38465;SDS011;24244;51.950;5.902;2023-07-24T00:33:14;2.35;;;0.90;;
38465;SDS011;24244;51.950;5.902;2023-07-24T00:35:41;1.27;;;0.47;;
38465;SDS011;24244;51.950;5.902;2023-07-24T00:38:08;1.83;;;0.70;;
38465;SDS011;24244;51.950;5.902;2023-07-24T00:40:36;2.60;;;1.00;;
38465;SDS011;24244;51.950;5.902;2023-07-24T00:43:02;1.83;;;0.80;;
38465;SDS011;24244;51.950;5.902;2023-07-24T00:45:29;2.17;;;0.75;;
38465;SDS011;24244;51.950;5.902;2023-07-24T00:47:56;1.95;;;0.90;;
38465;SDS011;24244;51.950;5.902;2023-07-24T00:50:24;1.95;;;0.95;;
38465;SDS011;24244;51.950;5.902;2023-07-24T00:52:51;1.10;;;0.50;;
38465;SDS011;24244;51.950;5.902;2023-07-24T00:55:18;1.73;;;0.70;;
38465;SDS011;24244;51.950;5.902;2023-07-24T00:57:46;1.88;;;0.70;;
38465;SDS011;24244;51.950;5.902;2023-07-24T01:00:13;2.15;;;0.70;;
38465;SDS011;24244;51.950;5.902;2023-07-24T01:02:41;2.20;;;0.88;;
38465;SDS011;24244;51.950;5.902;2023-07-24T01:05:09;1.58;;;0.52;;
38465;SDS011;24244;51.950;5.902;2023-07-24T01:07:38;1.70;;;0.65;;
38465;SDS011;24244;51.950;5.902;2023-07-24T01:10:05;1.85;;;0.70;;
38465;SDS011;24244;51.950;5.902;2023-07-24T01:12:35;2.63;;;0.68;;
38465;SDS011;24244;51.950;5.902;2023-07-24T01:15:06;1.88;;;0.80;;
38465;SDS011;24244;51.950;5.902;2023-07-24T01:17:39;1.58;;;0.70;;
38465;SDS011;24244;51.950;5.902;2023-07-24T01:20:12;1.65;;;0.70;;
38465;SDS011;24244;51.950;5.902;2023-07-24T01:22:45;2.75;;;0.60;;
38465;SDS011;24244;51.950;5.902;2023-07-24T01:25:27;2.33;;;1.00;;
38465;SDS011;24244;51.950;5.902;2023-07-24T01:27:59;2.03;;;0.90;;
38465;SDS011;24244;51.950;5.902;2023-07-24T01:30:25;2.28;;;1.10;;
38465;SDS011;24244;51.950;5.902;2023-07-24T01:32:52;2.60;;;1.25;;
38465;SDS011;24244;51.950;5.902;2023-07-24T01:35:19;3.63;;;1.00;;
38465;SDS011;24244;51.950;5.902;2023-07-24T01:37:48;2.17;;;0.95;;
38465;SDS011;24244;51.950;5.902;2023-07-24T01:40:15;2.33;;;0.90;;
38465;SDS011;24244;51.950;5.902;2023-07-24T01:42:43;2.53;;;1.27;;
38465;SDS011;24244;51.950;5.902;2023-07-24T01:45:12;2.70;;;1.20;;
38465;SDS011;24244;51.950;5.902;2023-07-24T01:47:38;2.80;;;1.13;;
38465;SDS011;24244;51.950;5.902;2023-07-24T01:50:06;2.50;;;1.10;;
38465;SDS011;24244;51.950;5.902;2023-07-24T01:52:33;2.25;;;1.00;;
38465;SDS011;24244;51.950;5.902;2023-07-24T01:55:00;2.75;;;1.10;;
38465;SDS011;24244;51.950;5.902;2023-07-24T01:57:27;2.90;;;1.27;;
38465;SDS011;24244;51.950;5.902;2023-07-24T01:59:54;2.67;;;1.20;;
38465;SDS011;24244;51.950;5.902;2023-07-24T02:02:22;2.72;;;1.17;;
38465;SDS011;24244;51.950;5.902;2023-07-24T02:04:48;3.30;;;1.40;;
38465;SDS011;24244;51.950;5.902;2023-07-24T02:07:15;2.22;;;1.15;;
38465;SDS011;24244;51.950;5.902;2023-07-24T02:09:42;2.60;;;1.35;;
38465;SDS011;24244;51.950;5.902;2023-07-24T02:12:09;2.55;;;1.30;;
38465;SDS011;24244;51.950;5.902;2023-07-24T02:14:35;2.85;;;1.25;;
38465;SDS011;24244;51.950;5.902;2023-07-24T02:17:02;2.42;;;1.25;;
38465;SDS011;24244;51.950;5.902;2023-07-24T02:19:31;3.30;;;1.17;;
38465;SDS011;24244;51.950;5.902;2023-07-24T02:21:57;2.60;;;1.40;;
38465;SDS011;24244;51.950;5.902;2023-07-24T02:24:24;3.20;;;1.45;;
38465;SDS011;24244;51.950;5.902;2023-07-24T02:26:51;2.35;;;1.30;;
38465;SDS011;24244;51.950;5.902;2023-07-24T02:29:18;3.17;;;1.23;;
38465;SDS011;24244;51.950;5.902;2023-07-24T02:31:45;2.10;;;1.10;;
38465;SDS011;24244;51.950;5.902;2023-07-24T02:34:12;3.78;;;1.30;;
38465;SDS011;24244;51.950;5.902;2023-07-24T02:36:40;2.63;;;1.33;;
38465;SDS011;24244;51.950;5.902;2023-07-24T02:39:07;3.00;;;1.40;;
38465;SDS011;24244;51.950;5.902;2023-07-24T02:41:34;3.70;;;1.55;;
38465;SDS011;24244;51.950;5.902;2023-07-24T02:44:03;2.88;;;1.20;;
38465;SDS011;24244;51.950;5.902;2023-07-24T02:46:30;2.00;;;1.05;;
38465;SDS011;24244;51.950;5.902;2023-07-24T02:48:57;3.60;;;1.20;;
38465;SDS011;24244;51.950;5.902;2023-07-24T02:51:24;2.55;;;1.20;;
38465;SDS011;24244;51.950;5.902;2023-07-24T02:53:53;3.10;;;1.50;;
38465;SDS011;24244;51.950;5.902;2023-07-24T02:56:20;2.83;;;1.48;;
38465;SDS011;24244;51.950;5.902;2023-07-24T02:58:47;2.70;;;1.30;;
38465;SDS011;24244;51.950;5.902;2023-07-24T03:01:14;3.40;;;1.77;;
38465;SDS011;24244;51.950;5.902;2023-07-24T03:03:41;2.30;;;1.20;;
38465;SDS011;24244;51.950;5.902;2023-07-24T03:06:08;3.95;;;1.70;;
38465;SDS011;24244;51.950;5.902;2023-07-24T03:08:35;2.90;;;1.48;;
38465;SDS011;24244;51.950;5.902;2023-07-24T03:11:05;3.78;;;2.00;;
38465;SDS011;24244;51.950;5.902;2023-07-24T03:13:32;3.47;;;1.70;;
38465;SDS011;24244;51.950;5.902;2023-07-24T03:15:59;3.50;;;1.77;;
38465;SDS011;24244;51.950;5.902;2023-07-24T03:18:26;3.00;;;1.67;;
38465;SDS011;24244;51.950;5.902;2023-07-24T03:20:53;3.83;;;2.10;;
38465;SDS011;24244;51.950;5.902;2023-07-24T03:23:20;3.53;;;1.70;;
38465;SDS011;24244;51.950;5.902;2023-07-24T03:25:48;2.78;;;1.42;;
38465;SDS011;24244;51.950;5.902;2023-07-24T03:28:17;3.13;;;1.70;;
38465;SDS011;24244;51.950;5.902;2023-07-24T03:30:44;2.70;;;1.42;;
38465;SDS011;24244;51.950;5.902;2023-07-24T03:33:10;4.10;;;1.90;;
38465;SDS011;24244;51.950;5.902;2023-07-24T03:35:38;3.35;;;1.73;;
38465;SDS011;24244;51.950;5.902;2023-07-24T03:38:05;4.22;;;2.10;;
38465;SDS011;24244;51.950;5.902;2023-07-24T03:40:32;3.67;;;1.75;;
38465;SDS011;24244;51.950;5.902;2023-07-24T03:42:59;4.18;;;2.15;;
38465;SDS011;24244;51.950;5.902;2023-07-24T03:45:27;3.92;;;2.03;;
38465;SDS011;24244;51.950;5.902;2023-07-24T03:47:54;4.72;;;2.35;;
38465;SDS011;24244;51.950;5.902;2023-07-24T03:50:21;3.25;;;1.85;;
38465;SDS011;24244;51.950;5.902;2023-07-24T03:52:48;3.60;;;1.90;;
38465;SDS011;24244;51.950;5.902;2023-07-24T03:55:15;3.17;;;1.92;;
38465;SDS011;24244;51.950;5.902;2023-07-24T03:57:41;3.47;;;1.88;;
38465;SDS011;24244;51.950;5.902;2023-07-24T04:00:09;3.55;;;1.85;;
38465;SDS011;24244;51.950;5.902;2023-07-24T04:02:37;3.08;;;1.40;;
38465;SDS011;24244;51.950;5.902;2023-07-24T04:05:07;3.10;;;1.73;;
38465;SDS011;24244;51.950;5.902;2023-07-24T04:07:34;3.72;;;2.28;;
38465;SDS011;24244;51.950;5.902;2023-07-24T04:10:01;4.95;;;1.73;;
38465;SDS011;24244;51.950;5.902;2023-07-24T04:12:28;3.40;;;1.70;;
38465;SDS011;24244;51.950;5.902;2023-07-24T04:14:55;2.88;;;1.70;;
38465;SDS011;24244;51.950;5.902;2023-07-24T04:17:22;2.85;;;1.65;;
38465;SDS011;24244;51.950;5.902;2023-07-24T04:19:51;3.55;;;1.35;;
38465;SDS011;24244;51.950;5.902;2023-07-24T04:22:17;3.10;;;1.70;;
38465;SDS011;24244;51.950;5.902;2023-07-24T04:24:44;3.67;;;1.70;;
38465;SDS011;24244;51.950;5.902;2023-07-24T04:27:11;2.70;;;1.40;;
38465;SDS011;24244;51.950;5.902;2023-07-24T04:29:40;2.40;;;1.20;;
38465;SDS011;24244;51.950;5.902;2023-07-24T04:32:07;3.47;;;1.40;;
38465;SDS011;24244;51.950;5.902;2023-07-24T04:34:34;4.53;;;1.75;;
38465;SDS011;24244;51.950;5.902;2023-07-24T04:37:02;3.10;;;1.42;;
38465;SDS011;24244;51.950;5.902;2023-07-24T04:39:30;3.10;;;1.90;;
38465;SDS011;24244;51.950;5.902;2023-07-24T04:41:57;3.85;;;2.05;;
38465;SDS011;24244;51.950;5.902;2023-07-24T04:44:24;2.92;;;1.48;;
38465;SDS011;24244;51.950;5.902;2023-07-24T04:46:51;3.10;;;1.80;;
38465;SDS011;24244;51.950;5.902;2023-07-24T04:49:18;3.10;;;1.45;;
38465;SDS011;24244;51.950;5.902;2023-07-24T04:51:44;2.65;;;1.40;;
38465;SDS011;24244;51.950;5.902;2023-07-24T04:54:12;3.22;;;1.63;;
38465;SDS011;24244;51.950;5.902;2023-07-24T04:56:39;3.10;;;1.70;;
38465;SDS011;24244;51.950;5.902;2023-07-24T04:59:06;3.15;;;1.60;;
38465;SDS011;24244;51.950;5.902;2023-07-24T05:01:33;3.60;;;2.03;;
38465;SDS011;24244;51.950;5.902;2023-07-24T05:04:00;3.60;;;1.80;;
38465;SDS011;24244;51.950;5.902;2023-07-24T05:06:27;2.72;;;1.42;;
38465;SDS011;24244;51.950;5.902;2023-07-24T05:08:54;3.30;;;1.77;;
38465;SDS011;24244;51.950;5.902;2023-07-24T05:11:25;3.67;;;1.83;;
38465;SDS011;24244;51.950;5.902;2023-07-24T05:13:52;5.88;;;2.10;;
38465;SDS011;24244;51.950;5.902;2023-07-24T05:16:19;3.85;;;1.83;;
38465;SDS011;24244;51.950;5.902;2023-07-24T05:18:46;4.03;;;1.73;;
38465;SDS011;24244;51.950;5.902;2023-07-24T05:21:12;2.85;;;1.45;;
38465;SDS011;24244;51.950;5.902;2023-07-24T05:23:39;3.33;;;1.85;;
38465;SDS011;24244;51.950;5.902;2023-07-24T05:26:06;4.28;;;1.77;;
38465;SDS011;24244;51.950;5.902;2023-07-24T05:28:34;5.03;;;2.03;;
38465;SDS011;24244;51.950;5.902;2023-07-24T05:31:02;4.32;;;2.20;;
38465;SDS011;24244;51.950;5.902;2023-07-24T05:33:29;4.60;;;2.10;;
38465;SDS011;24244;51.950;5.902;2023-07-24T05:35:57;3.72;;;1.73;;
38465;SDS011;24244;51.950;5.902;2023-07-24T05:38:24;4.13;;;2.03;;
38465;SDS011;24244;51.950;5.902;2023-07-24T05:40:55;3.80;;;2.03;;
38465;SDS011;24244;51.950;5.902;2023-07-24T05:43:22;3.17;;;1.70;;
38465;SDS011;24244;51.950;5.902;2023-07-24T05:45:50;3.47;;;1.90;;
38465;SDS011;24244;51.950;5.902;2023-07-24T05:48:18;4.18;;;2.20;;
38465;SDS011;24244;51.950;5.902;2023-07-24T05:50:44;4.05;;;2.53;;
38465;SDS011;24244;51.950;5.902;2023-07-24T05:53:11;4.82;;;2.50;;
38465;SDS011;24244;51.950;5.902;2023-07-24T05:55:38;4.32;;;2.33;;
38465;SDS011;24244;51.950;5.902;2023-07-24T05:58:05;4.57;;;2.22;;
38465;SDS011;24244;51.950;5.902;2023-07-24T06:00:32;5.05;;;2.58;;
38465;SDS011;24244;51.950;5.902;2023-07-24T06:03:00;5.07;;;2.83;;
38465;SDS011;24244;51.950;5.902;2023-07-24T06:05:28;6.13;;;2.83;;
38465;SDS011;24244;51.950;5.902;2023-07-24T06:07:55;4.40;;;2.25;;
38465;SDS011;24244;51.950;5.902;2023-07-24T06:10:22;6.10;;;2.47;;
38465;SDS011;24244;51.950;5.902;2023-07-24T06:12:49;3.83;;;2.10;;
38465;SDS011;24244;51.950;5.902;2023-07-24T06:15:16;4.63;;;2.38;;
38465;SDS011;24244;51.950;5.902;2023-07-24T06:17:43;5.03;;;2.70;;
38465;SDS011;24244;51.950;5.902;2023-07-24T06:20:11;5.15;;;2.88;;
38465;SDS011;24244;51.950;5.902;2023-07-24T06:22:38;5.13;;;2.78;;
38465;SDS011;24244;51.950;5.902;2023-07-24T06:25:05;4.47;;;2.45;;
38465;SDS011;24244;51.950;5.902;2023-07-24T06:27:32;5.38;;;2.90;;
38465;SDS011;24244;51.950;5.902;2023-07-24T06:29:59;4.15;;;2.55;;
38465;SDS011;24244;51.950;5.902;2023-07-24T06:32:39;5.38;;;2.72;;
38465;SDS011;24244;51.950;5.902;2023-07-24T06:35:07;4.13;;;2.45;;
38465;SDS011;24244;51.950;5.902;2023-07-24T06:37:35;5.03;;;2.85;;
38465;SDS011;24244;51.950;5.902;2023-07-24T06:40:02;5.03;;;2.60;;
38465;SDS011;24244;51.950;5.902;2023-07-24T06:42:30;5.38;;;2.90;;
38465;SDS011;24244;51.950;5.902;2023-07-24T06:44:57;7.35;;;3.28;;
38465;SDS011;24244;51.950;5.902;2023-07-24T06:47:24;5.10;;;2.95;;
38465;SDS011;24244;51.950;5.902;2023-07-24T06:49:51;4.65;;;2.80;;
38465;SDS011;24244;51.950;5.902;2023-07-24T06:52:18;5.32;;;2.97;;
38465;SDS011;24244;51.950;5.902;2023-07-24T06:54:46;5.50;;;3.28;;
38465;SDS011;24244;51.950;5.902;2023-07-24T06:57:13;5.22;;;2.90;;
38465;SDS011;24244;51.950;5.902;2023-07-24T06:59:40;5.30;;;3.30;;
38465;SDS011;24244;51.950;5.902;2023-07-24T07:02:07;6.07;;;3.83;;
38465;SDS011;24244;51.950;5.902;2023-07-24T07:04:33;6.97;;;3.90;;
38465;SDS011;24244;51.950;5.902;2023-07-24T07:07:00;4.75;;;2.83;;
38465;SDS011;24244;51.950;5.902;2023-07-24T07:09:27;6.90;;;3.50;;
38465;SDS011;24244;51.950;5.902;2023-07-24T07:11:56;6.07;;;3.80;;
38465;SDS011;24244;51.950;5.902;2023-07-24T07:14:22;9.10;;;5.10;;
38465;SDS011;24244;51.950;5.902;2023-07-24T07:16:49;7.28;;;3.95;;
38465;SDS011;24244;51.950;5.902;2023-07-24T07:19:16;7.35;;;4.75;;
38465;SDS011;24244;51.950;5.902;2023-07-24T07:21:43;8.43;;;4.65;;
38465;SDS011;24244;51.950;5.902;2023-07-24T07:24:10;7.18;;;4.72;;
38465;SDS011;24244;51.950;5.902;2023-07-24T07:26:36;7.75;;;4.78;;
38465;SDS011;24244;51.950;5.902;2023-07-24T07:29:04;7.88;;;4.40;;
38465;SDS011;24244;51.950;5.902;2023-07-24T07:31:31;7.43;;;4.57;;
38465;SDS011;24244;51.950;5.902;2023-07-24T07:33:58;8.52;;;4.80;;
38465;SDS011;24244;51.950;5.902;2023-07-24T07:36:25;7.50;;;4.20;;
38465;SDS011;24244;51.950;5.902;2023-07-24T07:38:52;8.98;;;4.80;;
38465;SDS011;24244;51.950;5.902;2023-07-24T07:41:18;10.20;;;5.20;;
38465;SDS011;24244;51.950;5.902;2023-07-24T07:43:45;9.35;;;5.63;;
38465;SDS011;24244;51.950;5.902;2023-07-24T07:46:13;7.40;;;5.03;;
38465;SDS011;24244;51.950;5.902;2023-07-24T07:48:40;7.00;;;4.15;;
38465;SDS011;24244;51.950;5.902;2023-07-24T07:51:07;8.40;;;4.95;;
38465;SDS011;24244;51.950;5.902;2023-07-24T07:53:34;7.50;;;4.72;;
38465;SDS011;24244;51.950;5.902;2023-07-24T07:56:01;7.40;;;4.60;;
38465;SDS011;24244;51.950;5.902;2023-07-24T07:58:28;7.10;;;4.80;;
38465;SDS011;24244;51.950;5.902;2023-07-24T08:00:55;8.55;;;5.35;;
38465;SDS011;24244;51.950;5.902;2023-07-24T08:03:23;8.15;;;4.22;;
38465;SDS011;24244;51.950;5.902;2023-07-24T08:05:50;8.45;;;5.75;;
38465;SDS011;24244;51.950;5.902;2023-07-24T08:08:17;7.53;;;4.72;;
38465;SDS011;24244;51.950;5.902;2023-07-24T08:10:44;8.60;;;5.00;;
38465;SDS011;24244;51.950;5.902;2023-07-24T08:13:10;9.35;;;5.72;;
38465;SDS011;24244;51.950;5.902;2023-07-24T08:15:37;10.20;;;5.82;;
38465;SDS011;24244;51.950;5.902;2023-07-24T08:18:04;7.22;;;4.30;;
38465;SDS011;24244;51.950;5.902;2023-07-24T08:20:36;9.60;;;6.13;;
38465;SDS011;24244;51.950;5.902;2023-07-24T08:23:04;10.15;;;5.90;;
38465;SDS011;24244;51.950;5.902;2023-07-24T08:25:30;8.20;;;4.93;;
38465;SDS011;24244;51.950;5.902;2023-07-24T08:27:57;9.30;;;5.03;;
38465;SDS011;24244;51.950;5.902;2023-07-24T08:30:27;10.10;;;5.68;;
38465;SDS011;24244;51.950;5.902;2023-07-24T08:32:55;8.00;;;4.97;;
38465;SDS011;24244;51.950;5.902;2023-07-24T08:35:22;8.65;;;5.50;;
38465;SDS011;24244;51.950;5.902;2023-07-24T08:37:50;9.40;;;5.80;;
38465;SDS011;24244;51.950;5.902;2023-07-24T08:40:17;7.45;;;4.63;;
38465;SDS011;24244;51.950;5.902;2023-07-24T08:42:45;8.20;;;4.63;;
38465;SDS011;24244;51.950;5.902;2023-07-24T08:45:15;8.75;;;5.07;;
38465;SDS011;24244;51.950;5.902;2023-07-24T08:47:43;7.85;;;5.07;;
38465;SDS011;24244;51.950;5.902;2023-07-24T08:50:11;7.43;;;4.30;;
38465;SDS011;24244;51.950;5.902;2023-07-24T08:52:38;7.38;;;4.53;;
38465;SDS011;24244;51.950;5.902;2023-07-24T08:55:07;7.93;;;4.82;;
38465;SDS011;24244;51.950;5.902;2023-07-24T08:57:34;6.30;;;4.78;;
38465;SDS011;24244;51.950;5.902;2023-07-24T09:00:02;7.45;;;4.55;;
38465;SDS011;24244;51.950;5.902;2023-07-24T09:02:32;7.00;;;4.57;;
38465;SDS011;24244;51.950;5.902;2023-07-24T09:05:00;9.02;;;5.53;;
38465;SDS011;24244;51.950;5.902;2023-07-24T09:07:27;6.47;;;4.15;;
38465;SDS011;24244;51.950;5.902;2023-07-24T09:09:53;7.15;;;4.72;;
38465;SDS011;24244;51.950;5.902;2023-07-24T09:12:22;7.60;;;4.78;;
38465;SDS011;24244;51.950;5.902;2023-07-24T09:15:00;6.82;;;4.68;;
38465;SDS011;24244;51.950;5.902;2023-07-24T09:17:28;9.20;;;5.13;;
38465;SDS011;24244;51.950;5.902;2023-07-24T09:19:56;7.25;;;5.10;;
38465;SDS011;24244;51.950;5.902;2023-07-24T09:22:24;7.22;;;5.07;;
38465;SDS011;24244;51.950;5.902;2023-07-24T09:24:53;7.57;;;5.30;;
38465;SDS011;24244;51.950;5.902;2023-07-24T09:27:24;7.45;;;5.03;;
38465;SDS011;24244;51.950;5.902;2023-07-24T09:29:52;6.25;;;4.57;;
38465;SDS011;24244;51.950;5.902;2023-07-24T09:32:20;6.68;;;4.47;;
38465;SDS011;24244;51.950;5.902;2023-07-24T09:34:48;6.95;;;4.40;;
38465;SDS011;24244;51.950;5.902;2023-07-24T09:37:24;6.15;;;3.60;;
38465;SDS011;24244;51.950;5.902;2023-07-24T09:39:52;7.13;;;4.75;;
38465;SDS011;24244;51.950;5.902;2023-07-24T09:42:28;5.85;;;4.10;;
38465;SDS011;24244;51.950;5.902;2023-07-24T09:44:55;6.50;;;4.50;;
38465;SDS011;24244;51.950;5.902;2023-07-24T09:47:22;8.38;;;5.15;;
38465;SDS011;24244;51.950;5.902;2023-07-24T09:50:09;6.57;;;4.60;;
38465;SDS011;24244;51.950;5.902;2023-07-24T09:52:37;7.45;;;4.85;;
38465;SDS011;24244;51.950;5.902;2023-07-24T09:55:10;7.13;;;4.43;;
38465;SDS011;24244;51.950;5.902;2023-07-24T09:57:39;6.80;;;4.75;;
38465;SDS011;24244;51.950;5.902;2023-07-24T10:00:07;5.75;;;3.90;;
38465;SDS011;24244;51.950;5.902;2023-07-24T10:02:35;6.93;;;4.65;;
38465;SDS011;24244;51.950;5.902;2023-07-24T10:05:04;6.90;;;4.63;;
38465;SDS011;24244;51.950;5.902;2023-07-24T10:07:31;7.60;;;3.83;;
38465;SDS011;24244;51.950;5.902;2023-07-24T10:09:58;6.05;;;3.55;;
38465;SDS011;24244;51.950;5.902;2023-07-24T10:12:27;6.05;;;4.03;;
38465;SDS011;24244;51.950;5.902;2023-07-24T10:14:58;5.03;;;3.65;;
38465;SDS011;24244;51.950;5.902;2023-07-24T10:17:35;7.85;;;3.90;;
38465;SDS011;24244;51.950;5.902;2023-07-24T10:20:03;4.82;;;3.13;;
38465;SDS011;24244;51.950;5.902;2023-07-24T10:22:33;4.53;;;3.25;;
38465;SDS011;24244;51.950;5.902;2023-07-24T10:25:00;6.75;;;3.75;;
38465;SDS011;24244;51.950;5.902;2023-07-24T10:27:27;6.65;;;4.00;;
38465;SDS011;24244;51.950;5.902;2023-07-24T10:29:59;6.03;;;3.53;;
38465;SDS011;24244;51.950;5.902;2023-07-24T10:32:31;6.30;;;4.18;;
38465;SDS011;24244;51.950;5.902;2023-07-24T10:34:59;5.93;;;3.35;;
38465;SDS011;24244;51.950;5.902;2023-07-24T10:37:33;6.07;;;4.13;;
38465;SDS011;24244;51.950;5.902;2023-07-24T10:40:01;5.55;;;3.85;;
38465;SDS011;24244;51.950;5.902;2023-07-24T10:42:30;6.72;;;4.00;;
38465;SDS011;24244;51.950;5.902;2023-07-24T10:45:07;6.38;;;3.85;;
38465;SDS011;24244;51.950;5.902;2023-07-24T10:47:35;6.32;;;3.58;;
38465;SDS011;24244;51.950;5.902;2023-07-24T10:50:04;5.93;;;4.18;;
38465;SDS011;24244;51.950;5.902;2023-07-24T10:52:32;5.22;;;3.78;;
38465;SDS011;24244;51.950;5.902;2023-07-24T10:55:00;5.50;;;3.67;;
38465;SDS011;24244;51.950;5.902;2023-07-24T10:57:28;6.13;;;3.78;;
38465;SDS011;24244;51.950;5.902;2023-07-24T10:59:55;5.45;;;3.40;;
38465;SDS011;24244;51.950;5.902;2023-07-24T11:02:24;5.75;;;4.05;;
38465;SDS011;24244;51.950;5.902;2023-07-24T11:04:51;6.15;;;3.53;;
38465;SDS011;24244;51.950;5.902;2023-07-24T11:07:18;5.30;;;3.65;;
38465;SDS011;24244;51.950;5.902;2023-07-24T11:09:45;5.97;;;3.90;;
38465;SDS011;24244;51.950;5.902;2023-07-24T11:12:12;5.90;;;3.78;;
38465;SDS011;24244;51.950;5.902;2023-07-24T11:14:48;5.88;;;3.88;;
38465;SDS011;24244;51.950;5.902;2023-07-24T11:17:15;5.70;;;4.00;;
38465;SDS011;24244;51.950;5.902;2023-07-24T11:19:46;5.78;;;3.88;;
38465;SDS011;24244;51.950;5.902;2023-07-24T11:22:13;6.63;;;4.40;;
38465;SDS011;24244;51.950;5.902;2023-07-24T11:24:42;6.35;;;4.05;;
38465;SDS011;24244;51.950;5.902;2023-07-24T11:27:10;6.53;;;4.53;;
38465;SDS011;24244;51.950;5.902;2023-07-24T11:29:39;5.78;;;4.25;;
38465;SDS011;24244;51.950;5.902;2023-07-24T11:32:08;6.43;;;4.28;;
38465;SDS011;24244;51.950;5.902;2023-07-24T11:34:35;7.35;;;5.07;;
38465;SDS011;24244;51.950;5.902;2023-07-24T11:37:04;5.80;;;3.78;;
38465;SDS011;24244;51.950;5.902;2023-07-24T11:39:32;5.88;;;4.45;;
38465;SDS011;24244;51.950;5.902;2023-07-24T11:41:59;7.18;;;4.40;;
38465;SDS011;24244;51.950;5.902;2023-07-24T11:44:28;6.53;;;4.45;;
38465;SDS011;24244;51.950;5.902;2023-07-24T11:47:01;6.43;;;3.85;;
38465;SDS011;24244;51.950;5.902;2023-07-24T11:49:30;7.20;;;3.75;;
38465;SDS011;24244;51.950;5.902;2023-07-24T11:52:03;6.25;;;4.20;;
38465;SDS011;24244;51.950;5.902;2023-07-24T11:54:33;8.30;;;4.70;;
38465;SDS011;24244;51.950;5.902;2023-07-24T11:57:00;6.32;;;3.75;;
38465;SDS011;24244;51.950;5.902;2023-07-24T11:59:27;5.85;;;3.67;;
38465;SDS011;24244;51.950;5.902;2023-07-24T12:01:54;6.75;;;3.80;;
38465;SDS011;24244;51.950;5.902;2023-07-24T12:04:21;6.50;;;4.10;;
38465;SDS011;24244;51.950;5.902;2023-07-24T12:06:48;6.63;;;4.18;;
38465;SDS011;24244;51.950;5.902;2023-07-24T12:09:16;6.63;;;4.30;;
38465;SDS011;24244;51.950;5.902;2023-07-24T12:11:43;6.85;;;4.43;;
38465;SDS011;24244;51.950;5.902;2023-07-24T12:14:12;7.05;;;4.15;;
38465;SDS011;24244;51.950;5.902;2023-07-24T12:16:40;7.05;;;4.15;;
38465;SDS011;24244;51.950;5.902;2023-07-24T12:19:07;5.22;;;3.30;;
38465;SDS011;24244;51.950;5.902;2023-07-24T12:21:34;5.85;;;3.90;;
38465;SDS011;24244;51.950;5.902;2023-07-24T12:24:01;6.13;;;3.03;;
38465;SDS011;24244;51.950;5.902;2023-07-24T12:26:30;5.93;;;3.80;;
38465;SDS011;24244;51.950;5.902;2023-07-24T12:28:56;5.85;;;3.72;;
38465;SDS011;24244;51.950;5.902;2023-07-24T12:31:27;5.30;;;3.70;;
38465;SDS011;24244;51.950;5.902;2023-07-24T12:33:55;5.72;;;2.92;;
38465;SDS011;24244;51.950;5.902;2023-07-24T12:36:23;5.57;;;3.20;;
38465;SDS011;24244;51.950;5.902;2023-07-24T12:38:50;5.45;;;2.90;;
38465;SDS011;24244;51.950;5.902;2023-07-24T12:41:17;4.80;;;3.00;;
38465;SDS011;24244;51.950;5.902;2023-07-24T12:43:46;6.10;;;3.47;;
38465;SDS011;24244;51.950;5.902;2023-07-24T12:46:12;5.15;;;3.28;;
38465;SDS011;24244;51.950;5.902;2023-07-24T12:48:39;6.68;;;3.42;;
38465;SDS011;24244;51.950;5.902;2023-07-24T12:51:06;6.10;;;3.22;;
38465;SDS011;24244;51.950;5.902;2023-07-24T12:53:32;4.88;;;3.15;;
38465;SDS011;24244;51.950;5.902;2023-07-24T12:56:18;4.30;;;2.80;;
38465;SDS011;24244;51.950;5.902;2023-07-24T12:58:46;5.47;;;3.33;;
38465;SDS011;24244;51.950;5.902;2023-07-24T13:01:13;4.60;;;3.20;;
38465;SDS011;24244;51.950;5.902;2023-07-24T13:03:40;5.45;;;3.25;;
38465;SDS011;24244;51.950;5.902;2023-07-24T13:06:07;5.07;;;3.10;;
38465;SDS011;24244;51.950;5.902;2023-07-24T13:08:35;5.53;;;3.72;;
38465;SDS011;24244;51.950;5.902;2023-07-24T13:11:02;4.07;;;2.63;;
38465;SDS011;24244;51.950;5.902;2023-07-24T13:13:29;4.35;;;3.03;;
38465;SDS011;24244;51.950;5.902;2023-07-24T13:15:58;6.13;;;3.42;;
38465;SDS011;24244;51.950;5.902;2023-07-24T13:18:25;5.80;;;3.40;;
38465;SDS011;24244;51.950;5.902;2023-07-24T13:20:54;5.45;;;2.65;;
38465;SDS011;24244;51.950;5.902;2023-07-24T13:23:21;4.07;;;2.80;;
38465;SDS011;24244;51.950;5.902;2023-07-24T13:25:48;4.45;;;2.42;;
38465;SDS011;24244;51.950;5.902;2023-07-24T13:28:17;4.95;;;2.50;;
38465;SDS011;24244;51.950;5.902;2023-07-24T13:30:44;3.40;;;2.10;;
38465;SDS011;24244;51.950;5.902;2023-07-24T13:33:13;4.95;;;2.72;;
38465;SDS011;24244;51.950;5.902;2023-07-24T13:35:40;3.83;;;2.28;;
38465;SDS011;24244;51.950;5.902;2023-07-24T13:38:07;3.95;;;2.03;;
38465;SDS011;24244;51.950;5.902;2023-07-24T13:40:34;3.17;;;2.05;;
38465;SDS011;24244;51.950;5.902;2023-07-24T13:43:01;4.93;;;2.10;;
38465;SDS011;24244;51.950;5.902;2023-07-24T13:45:28;4.05;;;1.73;;
38465;SDS011;24244;51.950;5.902;2023-07-24T13:47:56;2.97;;;1.83;;
38465;SDS011;24244;51.950;5.902;2023-07-24T13:50:25;4.88;;;1.73;;
38465;SDS011;24244;51.950;5.902;2023-07-24T13:52:52;3.55;;;2.03;;
38465;SDS011;24244;51.950;5.902;2023-07-24T13:55:19;3.55;;;2.17;;
38465;SDS011;24244;51.950;5.902;2023-07-24T13:57:46;4.10;;;2.05;;
38465;SDS011;24244;51.950;5.902;2023-07-24T14:00:13;4.20;;;2.30;;
38465;SDS011;24244;51.950;5.902;2023-07-24T14:02:41;4.68;;;2.22;;
38465;SDS011;24244;51.950;5.902;2023-07-24T14:05:08;3.83;;;2.35;;
38465;SDS011;24244;51.950;5.902;2023-07-24T14:07:37;5.22;;;2.45;;
38465;SDS011;24244;51.950;5.902;2023-07-24T14:10:04;3.85;;;2.40;;
38465;SDS011;24244;51.950;5.902;2023-07-24T14:12:31;5.18;;;2.60;;
38465;SDS011;24244;51.950;5.902;2023-07-24T14:14:58;5.45;;;3.05;;
38465;SDS011;24244;51.950;5.902;2023-07-24T14:17:25;4.25;;;2.90;;
38465;SDS011;24244;51.950;5.902;2023-07-24T14:19:52;4.22;;;2.80;;
38465;SDS011;24244;51.950;5.902;2023-07-24T14:22:19;4.55;;;3.30;;
38465;SDS011;24244;51.950;5.902;2023-07-24T14:24:47;5.28;;;3.30;;
38465;SDS011;24244;51.950;5.902;2023-07-24T14:27:14;4.78;;;2.80;;
38465;SDS011;24244;51.950;5.902;2023-07-24T14:29:41;3.72;;;2.58;;
38465;SDS011;24244;51.950;5.902;2023-07-24T14:32:09;4.25;;;2.92;;
38465;SDS011;24244;51.950;5.902;2023-07-24T14:34:35;5.43;;;3.25;;
38465;SDS011;24244;51.950;5.902;2023-07-24T14:37:02;3.70;;;2.50;;
38465;SDS011;24244;51.950;5.902;2023-07-24T14:39:29;4.85;;;3.08;;
38465;SDS011;24244;51.950;5.902;2023-07-24T14:41:58;4.57;;;2.67;;
38465;SDS011;24244;51.950;5.902;2023-07-24T14:44:25;5.57;;;3.42;;
38465;SDS011;24244;51.950;5.902;2023-07-24T14:46:52;5.63;;;3.35;;
38465;SDS011;24244;51.950;5.902;2023-07-24T14:49:20;5.93;;;3.22;;
38465;SDS011;24244;51.950;5.902;2023-07-24T14:51:48;4.97;;;3.42;;